< < Back
Terminal Aerodrome Forecast


Current Version              Previous Versions:   1  2  3  4  5  6  7  8  9  

Terminal Aerodrome Forecast

996
FTUS44 KMOB 230500
TAFPNS
TAF
KPNS 230534Z 2306/2406 31005KT 5SM BR SKC
      TEMPO 2309/2313 2SM BR
     FM231800 15006KT P6SM SCT035
     FM240200 VRB03KT P6SM SKC=

Latest METAR

236
SAUS70 KWBC 232000 RRE
MTRPNS
METAR KPNS 231953Z 17010KT 10SM CLR 26/17 A2991 RMK AO2 SLP129
T02610172


USA.gov is the U.S. government's official web portal to all federal, state and local government web resources and services.